Latest Weather Observations for Brisbane Airport

IDQ60801

Issued at 9:32 pm EST Thursday 25 August 2016 (issued every 30 minutes, with the page automatically refreshed every 10 minutes)

About weather observations | Map of weather stations | Latest weather observations for QLD | Other Formats
Station Details ID: 040842 Name: BRISBANE AERO Lat: -27.39 Lon: 153.13 Height: 4.51 m
Data from the previous 72 hours. | See also: Recent months at Brisbane Airport
Date/Time
EST
Temp
°C
App
Temp
°C
Dew
Point
°C
Rel
Hum
%
Delta-T
°C
Wind Press
QNH
hPa
Press
MSL
hPa
Rain since
9am
mm
Dir  Spd
km/h
Gust
km/h
Spd
kts
Gust
kts
25/09:00pm 12.9 8.0 4.3 56 3.9 WSW 19 24 10 13 1015.6 1015.6 0.0
25/08:30pm 13.6 8.7 3.9 52 4.4 WSW 19 22 10 12 1015.6 1015.6 0.0
25/08:00pm 13.8 9.2 3.9 51 4.5 WSW 17 20 9 11 1015.3 1015.3 0.0
25/07:30pm 14.8 9.6 3.3 46 5.2 WSW 20 26 11 14 1015.0 1015.0 0.0
25/07:00pm 15.2 10.0 3.3 45 5.4 W 20 28 11 15 1014.6 1014.6 0.0
25/06:30pm 15.9 10.9 3.5 43 5.7 WSW 19 28 10 15 1014.2 1014.2 0.0
25/06:00pm 16.4 10.9 3.9 43 5.8 WSW 22 32 12 17 1013.6 1013.6 0.0
25/05:30pm 16.7 9.7 4.1 43 5.9 W 30 33 16 18 1012.7 1012.7 0.0
25/05:00pm 17.9 11.0 2.6 36 7.0 WSW 28 37 15 20 1012.2 1012.2 0.0
25/04:30pm 18.7 11.4 2.3 33 7.5 W 30 37 16 20 1011.7 1011.7 0.0
25/04:00pm 19.2 11.8 4.1 37 7.2 W 32 43 17 23 1011.3 1011.3 0.0
25/03:30pm 19.7 13.1 4.3 36 7.4 WSW 28 41 15 22 1010.9 1010.9 0.0
25/03:00pm 19.9 13.3 4.3 35 7.5 W 28 39 15 21 1010.6 1010.6 0.0
25/02:30pm 20.1 14.6 4.0 34 7.7 W 22 33 12 18 1010.7 1010.7 0.0
25/02:00pm 20.0 13.0 4.2 35 7.6 WSW 30 39 16 21 1010.4 1010.4 0.0
25/01:30pm 19.5 11.5 4.0 36 7.4 W 35 44 19 24 1010.4 1010.4 0.0
25/01:00pm 19.4 11.2 5.0 38 7.0 W 37 50 20 27 1010.3 1010.3 0.0
25/12:30pm 19.5 11.1 5.4 39 6.9 WSW 39 50 21 27 1010.3 1010.3 0.0
25/12:00pm 18.7 11.3 5.1 40 6.6 WSW 33 44 18 24 1010.8 1010.8 0.0
25/11:30am 17.8 10.3 4.3 40 6.4 WSW 33 52 18 28 1010.9 1010.9 0.0
25/11:11am 18.0 10.1 4.6 41 6.4 W 35 54 19 29 1011.2 1011.2 0.0
25/11:00am 17.5 8.1 4.7 42 6.1 W 43 57 23 31 1011.1 1011.1 0.0
25/10:30am 16.9 9.5 3.8 41 6.1 WSW 32 41 17 22 1011.5 1011.5 0.0
25/10:01am 17.2 9.4 5.1 44 5.8 WSW 35 54 19 29 1011.7 1011.7 0.0
25/10:00am 17.0 9.6 5.1 45 5.7 WSW 33 48 18 26 1011.6 1011.6 0.0
25/09:30am 15.9 8.0 4.6 47 5.3 WSW 35 48 19 26 1012.3 1012.3 0.0
25/09:00am 16.1 9.6 6.5 53 4.7 W 30 46 16 25 1012.0 1012.0 6.8
25/08:30am 15.7 8.9 6.7 55 4.4 W 32 41 17 22 1011.5 1011.5 6.8
25/08:00am 15.1 8.8 7.2 59 3.9 W 30 41 16 22 1011.6 1011.6 6.8
25/07:40am 14.4 7.0 6.8 60 3.7 WSW 35 54 19 29 1010.6 1010.6 6.8
25/07:30am 14.3 6.6 7.2 62 3.5 WSW 37 48 20 26 1010.4 1010.4 6.8
25/07:00am 14.5 8.7 8.1 65 3.2 W 28 35 15 19 1011.1 1011.1 6.8
25/06:30am 14.7 9.7 8.1 64 3.3 W 24 33 13 18 1011.1 1011.1 6.8
25/06:00am 14.8 9.1 8.2 64 3.3 WSW 28 35 15 19 1009.8 1009.8 6.8
25/05:30am 15.3 9.7 8.6 64 3.4 WSW 28 37 15 20 1009.8 1009.8 6.8
25/05:00am 15.4 10.6 9.0 65 3.3 WSW 24 33 13 18 1009.5 1009.5 6.8
25/04:30am 15.9 10.3 8.7 62 3.7 W 28 41 15 22 1009.3 1009.3 6.8
25/04:13am 16.1 10.5 8.9 62 3.7 WNW 28 50 15 27 1009.5 1009.5 6.8
25/04:00am 16.2 11.8 8.8 61 3.8 W 22 37 12 20 1007.6 1007.6 6.8
25/03:30am 16.6 11.1 10.4 67 3.3 W 30 37 16 20 1008.0 1008.0 6.8
25/03:00am 17.1 12.0 10.6 65 3.5 W 28 39 15 21 1008.5 1008.5 6.8
25/02:30am 17.3 11.5 11.4 68 3.2 WNW 33 44 18 24 1008.5 1008.5 6.8
25/02:00am 17.5 12.4 11.9 69 3.1 WSW 30 41 16 22 1006.8 1006.8 6.8
25/01:30am 17.8 15.8 14.9 83 1.7 WSW 19 28 10 15 1006.8 1006.8 6.8
25/01:00am 17.3 16.8 15.8 91 0.9 W 13 17 7 9 1007.6 1007.6 6.8
25/12:30am 17.3 16.0 15.9 91 0.8 NNW 17 22 9 12 1007.7 1007.7 6.8
25/12:00am 17.4 15.4 16.4 94 0.6 NNW 22 28 12 15 1007.2 1007.2 6.8
 
Date/Time
EST
Temp
°C
App
Temp
°C
Dew
Point
°C
Rel
Hum
%
Delta-T
°C
Wind Press
QNH
hPa
Press
MSL
hPa
Rain since
9am
mm
Dir  Spd
km/h
Gust
km/h
Spd
kts
Gust
kts
24/11:30pm 17.5 14.5 16.7 95 0.5 NNW 28 33 15 18 1007.4 1007.4 6.8
24/11:00pm 17.3 14.6 16.5 95 0.5 N 26 32 14 17 1007.1 1007.1 6.8
24/10:30pm 17.0 15.2 16.0 94 0.6 N 20 28 11 15 1007.0 1007.0 6.8
24/10:00pm 16.5 15.1 15.5 94 0.6 NNW 17 20 9 11 1007.3 1007.3 6.8
24/09:30pm 16.4 15.7 15.5 94 0.5 NNW 13 28 7 15 1008.0 1008.0 6.8
24/09:00pm 16.8 15.8 15.6 93 0.7 WNW 15 20 8 11 1008.6 1008.6 6.8
24/08:30pm 17.3 16.1 16.1 93 0.7 NW 17 28 9 15 1008.4 1008.4 6.8
24/08:00pm 16.8 16.3 15.8 94 0.6 N 13 17 7 9 1007.7 1007.7 6.8
24/07:30pm 15.9 15.4 15.0 94 0.5 NNE 11 13 6 7 1007.1 1007.1 6.8
24/07:00pm 15.9 16.2 14.9 94 0.6 NNE 7 9 4 5 1008.1 1008.1 6.8
24/06:30pm 15.9 16.2 15.0 94 0.5 N 7 9 4 5 1008.2 1008.2 6.6
24/06:00pm 16.4 17.5 14.7 90 1.0 NW 2 7 1 4 1007.8 1007.8 6.6
24/05:30pm 16.4 15.6 15.2 93 0.7 SW 13 15 7 8 1008.4 1008.4 6.4
24/05:00pm 16.7 16.5 14.8 88 1.1 SSW 9 13 5 7 1007.5 1007.5 6.4
24/04:30pm 16.7 16.3 15.2 91 0.9 SSW 11 17 6 9 1007.6 1007.6 6.4
24/04:00pm 16.4 15.9 15.0 91 0.8 S 11 19 6 10 1007.5 1007.5 6.4
24/03:30pm 16.7 16.0 15.3 91 0.8 SSW 13 17 7 9 1007.4 1007.4 6.0
24/03:00pm 16.7 16.0 15.5 93 0.7 SSW 13 19 7 10 1006.8 1006.8 6.0
24/02:30pm 16.8 15.7 15.4 91 0.8 SSW 15 24 8 13 1006.7 1006.7 5.8
24/02:00pm 16.6 14.7 15.2 91 0.8 SSW 19 26 10 14 1006.7 1006.7 5.6
24/01:30pm 16.6 13.5 15.7 94 0.5 SSW 26 35 14 19 1006.2 1006.2 5.4
24/01:00pm 17.0 13.9 16.5 97 0.3 SSW 28 35 15 19 1006.0 1006.0 4.2
24/12:30pm 17.9 16.2 17.2 96 0.4 SSW 22 41 12 22 1005.8 1005.8 1.2
24/12:00pm 21.0 24.8 20.1 95 0.6 CALM 0 0 0 0 1006.0 1006.0 0.2
24/11:30am 21.3 25.0 19.9 92 0.9 CALM 0 0 0 0 1006.3 1006.3 0.0
24/11:00am 21.3 23.6 19.9 92 0.9 N 7 13 4 7 1006.8 1006.8 0.0
24/10:47am 21.2 23.2 20.0 93 0.8 N 9 15 5 8 1007.1 1007.1 0.0
24/10:30am 21.3 24.2 19.9 92 0.9 N 4 9 2 5 1007.4 1007.4 0.0
24/10:00am 21.3 22.9 19.9 92 0.9 N 11 15 6 8 1008.0 1008.0 0.0
24/09:30am 20.7 21.8 19.6 93 0.7 N 13 20 7 11 1008.4 1008.4 0.0
24/09:22am 20.7 21.5 19.8 95 0.6 N 15 20 8 11 1008.3 1008.3 0.0
24/09:00am 20.8 22.0 19.9 95 0.6 N 13 19 7 10 1008.3 1008.3 1.4
24/08:30am 20.4 21.5 19.6 95 0.5 N 13 17 7 9 1008.4 1008.4 1.4
24/08:00am 20.4 21.6 19.8 96 0.4 N 13 22 7 12 1008.6 1008.6 1.4
24/07:30am 20.2 21.3 19.6 96 0.4 N 13 19 7 10 1008.5 1008.5 1.4
24/07:00am 19.9 20.9 19.4 97 0.3 N 13 20 7 11 1008.6 1008.6 1.4
24/06:30am 19.8 21.1 19.2 96 0.4 N 11 15 6 8 1008.6 1008.6 1.4
24/06:00am 19.5 20.3 19.0 97 0.3 NNE 13 17 7 9 1008.0 1008.0 1.4
24/05:30am 19.4 20.5 18.8 96 0.4 NNE 11 17 6 9 1007.8 1007.8 1.4
24/05:00am 19.3 20.5 19.0 98 0.2 N 11 13 6 7 1007.9 1007.9 1.4
24/04:30am 19.2 20.7 18.9 98 0.2 N 9 11 5 6 1008.0 1008.0 1.4
24/04:00am 19.4 20.9 18.9 97 0.3 N 9 13 5 7 1008.3 1008.3 1.2
24/03:30am 19.3 20.3 18.7 96 0.4 N 11 15 6 8 1008.6 1008.6 1.0
24/03:00am 19.2 20.2 18.6 96 0.4 N 11 13 6 7 1008.9 1008.9 1.0
24/02:30am 19.2 19.5 18.7 97 0.3 N 15 19 8 10 1009.1 1009.1 1.0
24/02:00am 19.1 18.0 18.6 97 0.3 NNE 22 28 12 15 1009.8 1009.8 1.0
24/01:30am 19.1 17.0 18.1 94 0.6 N 26 33 14 18 1010.3 1010.3 1.0
24/01:13am 19.2 16.6 18.6 96 0.4 NNE 30 35 16 19 1010.2 1010.2 1.0
24/01:00am 19.4 17.6 18.8 96 0.4 NNE 26 32 14 17 1010.4 1010.4 1.0
24/12:30am 19.7 18.6 18.6 93 0.7 NNE 22 32 12 17 1010.7 1010.7 0.8
24/12:00am 19.9 18.1 18.8 93 0.7 N 26 33 14 18 1011.0 1011.0 0.8
 
Date/Time
EST
Temp
°C
App
Temp
°C
Dew
Point
°C
Rel
Hum
%
Delta-T
°C
Wind Press
QNH
hPa
Press
MSL
hPa
Rain since
9am
mm
Dir  Spd
km/h
Gust
km/h
Spd
kts
Gust
kts
23/11:30pm 20.1 19.7 19.3 95 0.5 N 20 33 11 18 1011.7 1011.7 0.8
23/11:20pm 20.4 19.6 19.3 93 0.7 N 22 30 12 16 1011.7 1011.7 0.8
23/11:00pm 20.3 20.0 19.5 95 0.5 N 20 28 11 15 1011.6 1011.6 0.8
23/10:30pm 20.2 19.8 19.4 95 0.5 NNE 20 26 11 14 1011.9 1011.9 0.6
23/10:19pm 20.3 19.6 19.5 95 0.5 NNE 22 32 12 17 1012.3 1012.3 0.6
23/10:00pm 20.3 20.0 19.5 95 0.5 NNE 20 26 11 14 1012.5 1012.5 0.0
23/09:47pm 20.6 20.2 19.3 92 0.8 N 20 26 11 14 1012.6 1012.6 0.0
23/09:30pm 20.7 19.5 19.3 92 0.9 NNE 24 50 13 27 1012.6 1012.6 0.0
23/09:20pm 20.6 19.8 19.3 92 0.8 NNE 22 28 12 15 1012.2 1012.2 0.0
23/09:00pm 20.7 21.6 19.3 92 0.9 NNE 13 19 7 10 1012.8 1012.8 0.0
23/08:30pm 20.9 21.8 19.2 90 1.1 NE 13 17 7 9 1013.1 1013.1 0.0
23/08:19pm 20.9 21.7 19.0 89 1.2 NE 13 20 7 11 1013.2 1013.2 0.0
23/08:00pm 20.8 21.9 18.9 89 1.2 NE 11 15 6 8 1013.1 1013.1 0.0
23/07:30pm 21.0 21.6 18.6 86 1.5 NE 13 22 7 12 1013.0 1013.0 0.0
23/07:00pm 20.9 21.8 18.5 86 1.5 ENE 11 13 6 7 1013.0 1013.0 0.0
23/06:30pm 20.6 21.0 18.2 86 1.5 NE 13 17 7 9 1012.8 1012.8 0.0
23/06:00pm 21.0 21.3 17.8 82 2.0 NE 13 17 7 9 1012.4 1012.4 0.0
23/05:30pm 20.9 20.3 17.5 81 2.1 NNE 17 20 9 11 1012.2 1012.2 0.0
23/05:00pm 21.2 20.2 17.5 79 2.3 NNE 19 26 10 14 1011.8 1011.8 0.0
23/04:30pm 21.8 19.7 17.1 74 2.9 NNE 24 30 13 16 1011.7 1011.7 0.0
23/04:00pm 21.9 20.8 17.7 77 2.6 NNE 20 30 11 16 1011.7 1011.7 0.0
23/03:30pm 22.2 19.9 16.6 70 3.4 NNE 24 32 13 17 1011.5 1011.5 0.0
23/03:00pm 23.4 20.5 16.0 63 4.5 NNE 26 33 14 18 1011.3 1011.3 0.0
23/02:30pm 23.2 19.9 16.1 64 4.3 NNE 28 33 15 18 1011.2 1011.2 0.0
23/02:00pm 22.7 20.6 17.2 71 3.4 NNE 24 30 13 16 1011.5 1011.5 0.0
23/01:30pm 22.6 20.0 16.9 70 3.5 NNE 26 33 14 18 1011.8 1011.8 0.0
23/01:00pm 23.8 21.7 16.3 63 4.6 NE 22 28 12 15 1012.0 1012.0 0.0
23/12:30pm 22.8 19.4 15.8 64 4.2 NNE 28 33 15 18 1012.5 1012.5 0.0
23/12:00pm 25.0 22.6 15.4 55 5.8 NNE 22 28 12 15 1012.9 1012.9 0.0
23/11:30am 24.6 23.0 14.9 54 5.8 NNE 17 22 9 12 1013.7 1013.7 0.0
23/11:00am 24.3 23.0 15.9 59 5.1 NNE 17 19 9 10 1014.1 1014.1 0.0
23/10:30am 23.7 22.4 15.7 61 4.8 NNE 17 20 9 11 1014.3 1014.3 0.0
23/10:00am 23.5 21.9 15.1 59 5.0 N 17 22 9 12 1014.3 1014.3 0.0
23/09:30am 23.0 21.8 15.1 61 4.7 N 15 19 8 10 1014.5 1014.5 0.0
23/09:00am 21.7 21.8 16.6 73 3.1 NW 11 17 6 9 1014.6 1014.6 0.0
23/08:30am 20.3 20.1 16.7 80 2.2 N 13 19 7 10 1014.1 1014.1 0.0
23/08:00am 20.0 20.0 16.3 79 2.2 N 11 13 6 7 1013.6 1013.6 0.0
23/07:30am 19.5 19.8 16.9 85 1.6 N 11 13 6 7 1014.4 1014.4 0.0
23/07:00am 18.7 19.3 16.7 88 1.2 N 9 15 5 8 1014.3 1014.3 0.0
23/06:30am 17.2 17.0 15.8 91 0.8 NNW 11 17 6 9 1014.2 1014.2 0.0
23/06:00am 17.5 17.7 15.8 90 1.0 NNW 9 11 5 6 1014.4 1014.4 0.0
23/05:30am 17.0 17.1 15.6 91 0.8 N 9 11 5 6 1014.5 1014.5 0.0
23/05:00am 17.0 18.8 15.5 91 0.9 CALM 0 0 0 0 1014.2 1014.2 0.0
23/04:30am 17.4 17.8 15.3 87 1.2 NW 7 9 4 5 1014.3 1014.3 0.0
23/04:00am 17.4 18.0 15.3 87 1.2 N 6 9 3 5 1014.1 1014.1 0.0
23/03:30am 17.5 19.2 15.3 87 1.3 CALM 0 0 0 0 1014.3 1014.3 0.0
23/03:00am 17.5 18.0 15.6 89 1.1 W 7 9 4 5 1014.4 1014.4 0.0
23/02:30am 17.7 17.8 15.5 87 1.3 W 9 11 5 6 1014.5 1014.5 0.0
23/02:00am 18.3 18.5 15.8 85 1.5 NW 9 15 5 8 1014.6 1014.6 0.0
23/01:30am 18.2 17.7 16.0 87 1.3 NNW 13 17 7 9 1014.6 1014.6 0.0
23/01:00am 18.2 16.5 16.2 88 1.2 N 20 28 11 15 1014.4 1014.4 0.0
23/12:30am 18.3 16.7 16.1 87 1.3 N 19 26 10 14 1014.9 1014.9 0.0
23/12:00am 18.0 16.9 16.3 90 1.0 N 17 22 9 12 1015.0 1015.0 0.0
 
Date/Time
EST
Temp
°C
App
Temp
°C
Dew
Point
°C
Rel
Hum
%
Delta-T
°C
Wind Press
QNH
hPa
Press
MSL
hPa
Rain since
9am
mm
Dir  Spd
km/h
Gust
km/h
Spd
kts
Gust
kts
22/11:30pm 18.1 19.1 16.3 89 1.1 NNW 6 11 3 6 1015.4 1015.4 0.0
22/11:00pm 18.2 18.8 16.7 91 0.9 NNW 9 11 5 6 1015.5 1015.5 0.0
22/10:30pm 18.3 18.1 16.6 90 1.0 N 13 17 7 9 1015.4 1015.4 0.0
22/10:00pm 19.0 18.0 16.7 86 1.4 N 17 20 9 11 1015.4 1015.4 0.0

Other Formats:

Comma delimited format used in spreadsheet applications
http://www.bom.gov.au/fwo/IDQ60801/IDQ60801.94578.axf

JavaScript Object Notation format (JSON) in row-major order
http://www.bom.gov.au/fwo/IDQ60801/IDQ60801.94578.json